createdAt,value
2022-12-09T00:00:09.080Z,10.60
2022-12-09T00:02:36.472Z,11.43
2022-12-09T00:05:04.317Z,9.57
2022-12-09T00:07:31.422Z,10.17
2022-12-09T00:09:58.450Z,8.50
2022-12-09T00:12:25.393Z,9.47
2022-12-09T00:14:52.340Z,10.80
2022-12-09T00:17:19.312Z,10.03
2022-12-09T00:19:47.417Z,10.50
2022-12-09T00:22:14.422Z,10.93
2022-12-09T00:24:41.503Z,10.60
2022-12-09T00:27:08.415Z,8.90
2022-12-09T00:29:35.422Z,8.97
2022-12-09T00:32:03.026Z,7.70
2022-12-09T00:34:30.079Z,9.67
2022-12-09T00:36:57.066Z,9.43
2022-12-09T00:39:24.202Z,9.40
2022-12-09T00:41:51.666Z,9.47
2022-12-09T00:44:19.442Z,10.30
2022-12-09T00:46:46.702Z,9.53
2022-12-09T00:49:14.030Z,10.20
2022-12-09T00:51:41.208Z,9.83
2022-12-09T00:54:08.366Z,10.00
2022-12-09T00:56:35.597Z,9.07
2022-12-09T00:59:02.644Z,8.97
2022-12-09T01:01:30.192Z,10.50
2022-12-09T01:03:57.688Z,10.93
2022-12-09T01:06:26.301Z,9.80
2022-12-09T01:08:53.787Z,10.97
2022-12-09T01:11:25.911Z,9.90
2022-12-09T01:13:54.167Z,11.03
2022-12-09T01:16:24.906Z,10.30
2022-12-09T01:18:54.703Z,10.20
2022-12-09T01:21:24.493Z,10.00
2022-12-09T01:23:51.949Z,11.17
2022-12-09T01:26:19.204Z,11.00
2022-12-09T01:28:46.639Z,9.13
2022-12-09T01:31:20.161Z,9.00
2022-12-09T01:33:48.074Z,9.37
2022-12-09T01:36:27.855Z,8.40
2022-12-09T01:38:57.631Z,6.83
2022-12-09T01:41:25.065Z,7.40
2022-12-09T01:44:24.340Z,6.67
2022-12-09T01:46:56.564Z,7.30
2022-12-09T01:49:29.416Z,6.70
2022-12-09T01:52:14.699Z,7.00
2022-12-09T01:54:46.395Z,6.57
2022-12-09T01:57:15.191Z,5.73
2022-12-09T01:59:43.031Z,6.73
2022-12-09T02:02:15.529Z,6.47
2022-12-09T02:04:46.177Z,7.13
2022-12-09T02:07:13.928Z,6.67
2022-12-09T02:09:42.526Z,6.47
2022-12-09T02:12:16.148Z,5.70
2022-12-09T02:15:02.027Z,5.83
2022-12-09T02:17:41.880Z,6.53
2022-12-09T02:20:35.600Z,5.53
2022-12-09T02:23:19.967Z,6.43
2022-12-09T02:26:08.509Z,5.83
2022-12-09T02:29:03.231Z,5.77
2022-12-09T02:31:45.364Z,6.37
2022-12-09T02:34:23.949Z,6.50
2022-12-09T02:37:06.911Z,6.83
2022-12-09T02:39:52.390Z,7.20
2022-12-09T02:42:24.686Z,6.57
2022-12-09T02:44:52.850Z,7.37
2022-12-09T02:47:27.484Z,6.70
2022-12-09T02:50:06.690Z,6.87
2022-12-09T02:52:35.844Z,7.17
2022-12-09T02:55:07.787Z,6.83
2022-12-09T02:57:37.205Z,7.00
2022-12-09T03:00:06.999Z,7.73
2022-12-09T03:02:43.884Z,8.17
2022-12-09T03:05:24.008Z,7.87
2022-12-09T03:08:43.968Z,9.53
2022-12-09T03:11:19.364Z,8.83
2022-12-09T03:14:19.023Z,8.50
2022-12-09T03:17:17.939Z,9.07
2022-12-09T03:19:55.611Z,8.60
2022-12-09T03:22:28.613Z,9.33
2022-12-09T03:25:28.499Z,9.20
2022-12-09T03:28:10.530Z,8.70
2022-12-09T03:30:41.163Z,9.73
2022-12-09T03:33:10.399Z,9.40
2022-12-09T03:35:43.389Z,10.90
2022-12-09T03:38:14.960Z,9.27
2022-12-09T03:40:43.199Z,10.20
2022-12-09T03:43:19.833Z,10.70
2022-12-09T03:45:47.223Z,10.27
2022-12-09T03:48:16.160Z,10.70
2022-12-09T03:50:56.002Z,10.60
2022-12-09T03:53:33.591Z,9.90
2022-12-09T03:56:33.499Z,9.93
2022-12-09T03:59:03.693Z,10.60
2022-12-09T04:01:32.888Z,11.20
2022-12-09T04:04:00.632Z,10.90
2022-12-09T04:06:27.808Z,10.90
2022-12-09T04:09:00.735Z,9.70
2022-12-09T04:11:29.607Z,11.17
2022-12-09T04:13:56.555Z,12.17
2022-12-09T04:16:23.635Z,11.57
2022-12-09T04:18:50.696Z,11.33
2022-12-09T04:21:17.877Z,11.77
2022-12-09T04:23:44.737Z,11.73
2022-12-09T04:26:17.693Z,11.97
2022-12-09T04:28:44.664Z,12.03
2022-12-09T04:31:17.330Z,11.13
2022-12-09T04:33:45.126Z,13.07
2022-12-09T04:36:15.915Z,12.30
2022-12-09T04:38:43.641Z,13.17
2022-12-09T04:41:11.717Z,13.00
2022-12-09T04:43:39.003Z,12.50
2022-12-09T04:46:11.456Z,13.87
2022-12-09T04:48:38.692Z,11.90
2022-12-09T04:51:09.752Z,12.10
2022-12-09T04:53:37.670Z,11.90
2022-12-09T04:56:08.547Z,11.20
2022-12-09T04:58:35.665Z,12.43
2022-12-09T05:01:11.533Z,10.93
2022-12-09T05:03:39.346Z,10.67
2022-12-09T05:06:11.190Z,11.90
2022-12-09T05:08:39.907Z,11.53
2022-12-09T05:11:07.719Z,11.67
2022-12-09T05:13:35.344Z,11.83
2022-12-09T05:16:13.786Z,11.47
2022-12-09T05:18:42.644Z,10.67
2022-12-09T05:21:18.538Z,10.83
2022-12-09T05:23:45.783Z,11.00
2022-12-09T05:26:16.924Z,10.40
2022-12-09T05:28:44.443Z,11.17
2022-12-09T05:31:17.179Z,10.20
2022-12-09T05:33:45.241Z,10.90
2022-12-09T05:36:15.779Z,11.33
2022-12-09T05:38:43.703Z,10.80
2022-12-09T05:41:11.000Z,12.10
2022-12-09T05:43:38.988Z,11.63
2022-12-09T05:46:07.036Z,12.50
2022-12-09T05:48:35.411Z,11.53
2022-12-09T05:51:15.579Z,11.60
2022-12-09T05:53:43.308Z,10.83
2022-12-09T05:56:10.679Z,11.10
2022-12-09T05:58:38.018Z,10.23
2022-12-09T06:01:08.953Z,11.53
2022-12-09T06:03:37.673Z,10.40
2022-12-09T06:06:07.562Z,10.93
2022-12-09T06:08:35.015Z,10.43
2022-12-09T06:11:02.546Z,9.40
2022-12-09T06:13:29.820Z,9.53
2022-12-09T06:16:04.426Z,8.87
2022-12-09T06:18:32.122Z,8.77
2022-12-09T06:20:59.690Z,9.10
2022-12-09T06:23:27.175Z,9.20
2022-12-09T06:25:54.319Z,9.47
2022-12-09T06:28:21.527Z,8.23
2022-12-09T06:30:48.453Z,9.07
2022-12-09T06:33:44.991Z,10.17
2022-12-09T06:36:04.161Z,9.13
2022-12-09T06:38:31.225Z,9.20
2022-12-09T06:40:58.324Z,8.23
2022-12-09T06:43:25.448Z,10.30
2022-12-09T06:45:54.265Z,8.90
2022-12-09T06:48:21.519Z,9.23
2022-12-09T06:50:50.907Z,9.20
2022-12-09T06:53:18.807Z,10.00
2022-12-09T06:55:45.732Z,9.07
2022-12-09T06:58:12.838Z,9.07
2022-12-09T07:00:40.532Z,9.87
2022-12-09T07:03:07.728Z,9.90
2022-12-09T07:05:35.282Z,10.50
2022-12-09T07:08:02.761Z,11.10
2022-12-09T07:10:30.016Z,9.70
2022-12-09T07:12:56.964Z,10.07
2022-12-09T07:15:24.257Z,9.80
2022-12-09T07:17:51.992Z,9.50
2022-12-09T07:20:19.455Z,11.30
2022-12-09T07:22:46.590Z,8.37
2022-12-09T07:25:13.890Z,8.83
2022-12-09T07:27:41.671Z,8.00
2022-12-09T07:30:09.499Z,7.00
2022-12-09T07:32:37.037Z,7.53
2022-12-09T07:35:04.461Z,8.60
2022-12-09T07:37:32.320Z,7.50
2022-12-09T07:39:59.593Z,6.50
2022-12-09T07:42:26.931Z,8.07
2022-12-09T07:44:55.178Z,7.90
2022-12-09T07:47:22.385Z,7.83
2022-12-09T07:49:49.870Z,7.67
2022-12-09T07:52:16.961Z,7.57
2022-12-09T07:54:43.937Z,7.73
2022-12-09T07:57:10.876Z,7.23
2022-12-09T07:59:37.991Z,8.30
2022-12-09T08:02:06.685Z,8.20
2022-12-09T08:04:36.223Z,8.33
2022-12-09T08:07:03.621Z,7.60
2022-12-09T08:09:31.152Z,8.43
2022-12-09T08:11:58.650Z,8.53
2022-12-09T08:14:25.870Z,7.97
2022-12-09T08:16:53.233Z,9.13
2022-12-09T08:19:20.471Z,9.13
2022-12-09T08:21:54.227Z,8.00
2022-12-09T08:24:21.973Z,9.30
2022-12-09T08:26:51.420Z,9.00
2022-12-09T08:29:19.245Z,8.73
2022-12-09T08:31:46.554Z,7.80
2022-12-09T08:34:15.366Z,8.73
2022-12-09T08:36:43.287Z,8.70
2022-12-09T08:39:13.204Z,7.93
2022-12-09T08:41:41.043Z,9.43
2022-12-09T08:44:22.213Z,9.37
2022-12-09T08:46:52.201Z,9.90
2022-12-09T08:49:22.238Z,13.57
2022-12-09T08:51:52.547Z,9.70
2022-12-09T08:54:20.077Z,8.60
2022-12-09T08:56:49.517Z,9.70
2022-12-09T08:59:17.757Z,8.27
2022-12-09T09:01:45.806Z,8.40
2022-12-09T09:04:20.356Z,8.87
2022-12-09T09:06:50.301Z,8.87
2022-12-09T09:09:18.559Z,7.67
2022-12-09T09:11:46.019Z,8.13
2022-12-09T09:14:14.331Z,7.47
2022-12-09T09:16:43.448Z,8.60
2022-12-09T09:19:17.565Z,8.37
2022-12-09T09:21:45.093Z,9.70
2022-12-09T09:24:15.607Z,8.27
2022-12-09T09:26:43.548Z,7.73
2022-12-09T09:29:15.999Z,8.73
2022-12-09T09:31:43.448Z,8.60
2022-12-09T09:34:11.485Z,7.70
2022-12-09T09:36:40.447Z,8.50
2022-12-09T09:39:07.712Z,8.23
2022-12-09T09:41:48.904Z,8.03
2022-12-09T09:44:30.487Z,9.30
2022-12-09T09:46:58.722Z,8.30
2022-12-09T09:49:29.906Z,8.20
2022-12-09T09:51:57.677Z,8.60
2022-12-09T09:54:24.928Z,8.27
2022-12-09T09:57:05.799Z,7.97
2022-12-09T10:00:14.943Z,7.63
2022-12-09T10:03:01.238Z,8.30
2022-12-09T10:05:33.568Z,8.70
2022-12-09T10:08:34.746Z,7.90
2022-12-09T10:11:21.098Z,8.30
2022-12-09T10:14:15.522Z,7.60
2022-12-09T10:17:09.765Z,7.33
2022-12-09T10:19:49.429Z,7.70
2022-12-09T10:22:22.344Z,7.00
2022-12-09T10:24:53.674Z,7.50
2022-12-09T10:27:32.848Z,7.40
2022-12-09T10:30:07.477Z,7.67
2022-12-09T10:32:37.667Z,7.80
2022-12-09T10:35:24.819Z,7.80
2022-12-09T10:37:54.376Z,9.13
2022-12-09T10:40:46.012Z,7.27
2022-12-09T10:43:37.521Z,7.10
2022-12-09T10:46:21.930Z,8.17
2022-12-09T10:48:50.297Z,7.33
2022-12-09T10:51:30.203Z,8.17
2022-12-09T10:54:03.665Z,7.63
2022-12-09T10:56:37.064Z,7.17
2022-12-09T10:59:25.770Z,7.97
2022-12-09T11:01:58.870Z,7.80
2022-12-09T11:04:39.330Z,6.83
2022-12-09T11:07:12.852Z,8.80
2022-12-09T11:09:44.808Z,7.60
2022-12-09T11:12:33.436Z,7.27
2022-12-09T11:15:32.471Z,7.40
2022-12-09T11:18:16.644Z,7.60
2022-12-09T11:20:57.072Z,7.87
2022-12-09T11:23:24.612Z,7.60
2022-12-09T11:26:23.097Z,9.07
2022-12-09T11:29:06.893Z,7.67
2022-12-09T11:31:39.249Z,7.10
2022-12-09T11:34:18.348Z,9.10
2022-12-09T11:36:52.867Z,8.17
2022-12-09T11:39:30.354Z,5.77
2022-12-09T11:42:17.429Z,7.00
2022-12-09T11:45:00.342Z,7.80
2022-12-09T11:50:31.559Z,6.27
2022-12-09T11:53:28.575Z,7.47
2022-12-09T11:56:14.766Z,6.33
2022-12-09T11:58:53.899Z,7.17
2022-12-09T12:01:32.580Z,7.77
2022-12-09T12:04:05.881Z,7.03
2022-12-09T12:06:50.754Z,6.50
2022-12-09T12:09:27.560Z,7.20
2022-12-09T12:12:06.391Z,7.77
2022-12-09T12:14:38.198Z,8.33
2022-12-09T12:17:26.036Z,6.40
2022-12-09T12:19:56.293Z,7.23
2022-12-09T12:23:09.618Z,7.87
2022-12-09T12:25:59.816Z,8.80
2022-12-09T12:29:06.904Z,7.60
2022-12-09T12:32:15.707Z,8.73
2022-12-09T12:35:20.346Z,8.60
2022-12-09T12:38:22.048Z,9.50
2022-12-09T12:41:24.087Z,8.97
2022-12-09T12:45:13.738Z,8.93
2022-12-09T12:47:57.660Z,8.97
2022-12-09T12:50:51.735Z,9.20
2022-12-09T12:53:29.502Z,9.00
2022-12-09T12:56:09.408Z,8.57
2022-12-09T12:58:36.293Z,9.47
2022-12-09T13:01:30.694Z,8.47
2022-12-09T13:04:25.160Z,9.97
2022-12-09T13:07:13.229Z,9.77
2022-12-09T13:09:55.000Z,8.93
2022-12-09T13:12:54.021Z,9.90
2022-12-09T13:15:34.773Z,8.90
2022-12-09T13:18:17.535Z,8.93
2022-12-09T13:20:56.674Z,8.97
2022-12-09T13:23:58.515Z,8.70
2022-12-09T13:27:00.291Z,8.83
2022-12-09T13:29:52.441Z,8.80
2022-12-09T13:32:58.248Z,10.10
2022-12-09T13:35:54.784Z,10.20
2022-12-09T13:38:39.642Z,8.63
2022-12-09T13:41:31.413Z,8.53
2022-12-09T13:44:13.667Z,8.60
2022-12-09T13:46:42.911Z,8.80
2022-12-09T13:49:18.221Z,9.90
2022-12-09T13:51:52.693Z,9.63
2022-12-09T13:54:23.881Z,9.30
2022-12-09T13:57:20.251Z,8.40
2022-12-09T13:59:59.249Z,10.03
2022-12-09T14:02:43.048Z,8.60
2022-12-09T14:05:19.825Z,9.50
2022-12-09T14:07:50.881Z,9.50
2022-12-09T14:10:50.215Z,9.77
2022-12-09T14:13:31.868Z,9.97
2022-12-09T14:16:17.389Z,10.53
2022-12-09T14:18:44.715Z,9.30
2022-12-09T14:21:29.790Z,9.63
2022-12-09T14:24:11.435Z,9.53
2022-12-09T14:27:10.301Z,10.97
2022-12-09T14:29:53.970Z,10.93
2022-12-09T14:32:49.900Z,10.13
2022-12-09T14:35:39.806Z,10.60
2022-12-09T14:38:28.558Z,9.60
2022-12-09T14:41:26.035Z,10.77
2022-12-09T14:44:15.879Z,9.00
2022-12-09T14:46:46.424Z,11.27
2022-12-09T14:49:20.837Z,9.47
2022-12-09T14:51:55.108Z,9.63
2022-12-09T14:54:36.145Z,11.57
2022-12-09T14:57:07.388Z,8.70
2022-12-09T14:59:34.940Z,10.57
2022-12-09T15:02:09.158Z,10.60
2022-12-09T15:04:43.218Z,9.77
2022-12-09T15:07:14.136Z,8.80
2022-12-09T15:10:04.757Z,9.33
2022-12-09T15:12:42.319Z,9.37
2022-12-09T15:15:24.425Z,9.20
2022-12-09T15:18:00.109Z,10.30
2022-12-09T15:20:37.240Z,10.63
2022-12-09T15:23:30.100Z,10.00
2022-12-09T15:26:03.189Z,9.00
2022-12-09T15:28:34.223Z,9.17
2022-12-09T15:31:03.800Z,9.47
2022-12-09T15:33:40.218Z,9.37
2022-12-09T15:36:26.383Z,9.73
2022-12-09T15:39:25.947Z,8.63
2022-12-09T15:42:08.121Z,10.17
2022-12-09T15:45:00.278Z,9.60
2022-12-09T15:47:33.876Z,9.40
2022-12-09T15:50:22.354Z,9.40
2022-12-09T15:53:37.192Z,9.57
2022-12-09T15:56:18.625Z,10.00
2022-12-09T15:58:50.581Z,9.67
2022-12-09T16:01:24.636Z,8.00
2022-12-09T16:03:54.069Z,9.27
2022-12-09T16:06:28.871Z,8.57
2022-12-09T16:08:56.771Z,8.70
2022-12-09T16:11:47.959Z,8.60
2022-12-09T16:14:16.622Z,9.13
2022-12-09T16:16:58.941Z,8.10
2022-12-09T16:19:36.278Z,9.40
2022-12-09T16:22:21.714Z,9.40
2022-12-09T16:27:48.506Z,9.13
2022-12-09T16:30:24.606Z,8.43
2022-12-09T16:33:02.384Z,10.27
2022-12-09T16:35:40.146Z,10.17
2022-12-09T16:38:09.957Z,9.63
2022-12-09T16:40:45.681Z,10.53
2022-12-09T16:43:20.339Z,10.17
2022-12-09T16:46:07.644Z,9.93
2022-12-09T16:48:34.551Z,9.30
2022-12-09T16:51:11.788Z,9.93
2022-12-09T16:53:47.622Z,9.17
2022-12-09T16:56:28.019Z,9.73
2022-12-09T16:58:55.599Z,11.23
2022-12-09T17:01:34.802Z,11.77
2022-12-09T17:04:11.491Z,12.50
2022-12-09T17:06:38.953Z,12.17
2022-12-09T17:09:06.049Z,14.27
2022-12-09T17:11:34.293Z,10.53
2022-12-09T17:14:01.156Z,11.63
2022-12-09T17:16:28.119Z,12.67
2022-12-09T17:18:55.142Z,14.83
2022-12-09T17:21:22.034Z,13.83
2022-12-09T17:23:49.038Z,13.67
2022-12-09T17:26:19.001Z,13.73
2022-12-09T17:28:46.926Z,15.63
2022-12-09T17:31:18.604Z,12.57
2022-12-09T17:33:45.967Z,13.40
2022-12-09T17:36:14.609Z,15.13
2022-12-09T17:38:42.050Z,13.50
2022-12-09T17:41:15.921Z,12.60
2022-12-09T17:43:43.266Z,14.40
2022-12-09T17:46:11.785Z,12.07
2022-12-09T17:48:42.011Z,12.50
2022-12-09T17:51:17.739Z,10.97
2022-12-09T17:53:45.562Z,11.30
2022-12-09T17:56:19.840Z,13.50
2022-12-09T17:58:48.110Z,14.27
2022-12-09T18:01:19.151Z,12.60
2022-12-09T18:03:55.892Z,11.73
2022-12-09T18:06:27.815Z,13.13
2022-12-09T18:08:54.852Z,12.90
2022-12-09T18:11:22.483Z,13.30
2022-12-09T18:13:51.198Z,11.40
2022-12-09T18:16:18.993Z,11.50
2022-12-09T18:18:46.561Z,13.50
2022-12-09T18:21:15.946Z,13.87
2022-12-09T18:23:43.933Z,13.27
2022-12-09T18:26:14.881Z,13.73
2022-12-09T18:28:42.249Z,12.93
2022-12-09T18:31:19.103Z,13.67
2022-12-09T18:33:46.651Z,14.83
2022-12-09T18:36:20.554Z,12.27
2022-12-09T18:38:47.924Z,12.37
2022-12-09T18:41:22.306Z,11.80
2022-12-09T18:43:52.470Z,12.60
2022-12-09T18:46:29.855Z,12.20
2022-12-09T18:49:05.674Z,14.37
2022-12-09T18:51:32.939Z,11.30
2022-12-09T18:54:01.847Z,14.00
2022-12-09T18:56:29.288Z,13.00
2022-12-09T18:59:06.518Z,10.70
2022-12-09T19:01:39.658Z,11.83
2022-12-09T19:04:10.422Z,13.30
2022-12-09T19:06:39.966Z,15.93
2022-12-09T19:09:14.836Z,14.63
2022-12-09T19:11:43.752Z,21.40
2022-12-09T19:14:11.141Z,12.27
2022-12-09T19:16:38.944Z,14.77
2022-12-09T19:19:10.493Z,12.30
2022-12-09T19:21:39.072Z,11.07
2022-12-09T19:24:07.514Z,13.50
2022-12-09T19:26:37.613Z,16.37
2022-12-09T19:29:07.703Z,14.03
2022-12-09T19:31:44.711Z,12.10
2022-12-09T19:34:24.749Z,11.40
2022-12-09T19:36:55.319Z,13.10
2022-12-09T19:39:24.810Z,14.50
2022-12-09T19:41:51.748Z,13.23
2022-12-09T19:44:44.368Z,11.20
2022-12-09T19:47:07.609Z,15.20
2022-12-09T19:49:34.633Z,12.13
2022-12-09T19:52:01.596Z,10.70
2022-12-09T19:54:29.618Z,11.60
2022-12-09T19:56:56.705Z,10.67
2022-12-09T19:59:23.617Z,12.30
2022-12-09T20:01:50.628Z,11.20
2022-12-09T20:07:08.501Z,11.30
2022-12-09T20:09:37.094Z,12.50
2022-12-09T20:12:04.839Z,11.97
2022-12-09T20:14:31.819Z,12.80
2022-12-09T20:16:58.695Z,13.37
2022-12-09T20:19:25.582Z,10.50
2022-12-09T20:21:52.508Z,12.40
2022-12-09T20:24:19.406Z,11.33
2022-12-09T20:26:46.292Z,11.30
2022-12-09T20:29:13.508Z,10.60
2022-12-09T20:31:41.783Z,11.97
2022-12-09T20:34:15.987Z,11.90
2022-12-09T20:36:44.834Z,11.27
2022-12-09T20:39:19.058Z,12.87
2022-12-09T20:41:47.060Z,11.27
2022-12-09T20:44:15.684Z,11.83
2022-12-09T20:46:51.098Z,11.47
2022-12-09T20:49:20.386Z,11.10
2022-12-09T20:51:48.603Z,10.80
2022-12-09T20:54:15.632Z,11.87
2022-12-09T20:56:42.561Z,12.60
2022-12-09T20:59:12.098Z,10.77
2022-12-09T21:01:39.734Z,9.57
2022-12-09T21:04:07.734Z,9.10
2022-12-09T21:06:39.766Z,12.03
2022-12-09T21:09:17.337Z,11.47
2022-12-09T21:11:45.114Z,12.13
2022-12-09T21:14:13.239Z,12.10
2022-12-09T21:16:42.273Z,12.03
2022-12-09T21:19:14.068Z,11.40
2022-12-09T21:21:46.697Z,10.50
2022-12-09T21:24:15.817Z,12.50
2022-12-09T21:26:42.744Z,11.97
2022-12-09T21:29:13.522Z,12.40
2022-12-09T21:31:42.075Z,10.73
2022-12-09T21:34:10.576Z,9.10
2022-12-09T21:36:41.190Z,7.50
2022-12-09T21:39:09.082Z,9.43
2022-12-09T21:41:37.405Z,9.20
2022-12-09T21:44:05.798Z,11.00
2022-12-09T21:46:36.470Z,11.07
2022-12-09T21:49:06.397Z,11.60
2022-12-09T21:51:34.925Z,10.80
2022-12-09T21:54:02.165Z,11.00
2022-12-09T21:56:32.687Z,11.80
2022-12-09T21:59:00.334Z,10.63
2022-12-09T22:01:33.765Z,10.70
2022-12-09T22:04:02.616Z,11.13
2022-12-09T22:06:30.426Z,11.13
2022-12-09T22:09:01.893Z,11.80
2022-12-09T22:11:31.683Z,12.20
2022-12-09T22:14:00.683Z,12.17
2022-12-09T22:16:48.393Z,11.70
2022-12-09T22:19:18.650Z,8.30
2022-12-09T22:21:45.935Z,8.30
2022-12-09T22:24:15.283Z,7.00
2022-12-09T22:26:45.566Z,9.03
2022-12-09T22:29:15.262Z,7.17
2022-12-09T22:31:43.298Z,7.70
2022-12-09T22:34:20.790Z,6.80
2022-12-09T22:36:49.346Z,6.80
2022-12-09T22:39:21.853Z,7.27
2022-12-09T22:41:48.822Z,6.53
2022-12-09T22:44:18.892Z,6.60
2022-12-09T22:46:46.689Z,7.10
2022-12-09T22:49:15.358Z,7.20
2022-12-09T22:51:43.092Z,7.70
2022-12-09T22:54:10.862Z,7.23
2022-12-09T22:56:40.583Z,7.77
2022-12-09T22:59:07.747Z,7.27
2022-12-09T23:01:37.346Z,7.03
2022-12-09T23:04:07.135Z,7.70
2022-12-09T23:06:37.234Z,8.10
2022-12-09T23:09:06.128Z,7.87
2022-12-09T23:11:33.003Z,8.17
2022-12-09T23:14:00.556Z,8.17
2022-12-09T23:16:27.863Z,7.70
2022-12-09T23:18:57.444Z,8.50
2022-12-09T23:21:37.166Z,9.37
2022-12-09T23:24:11.743Z,7.90
2022-12-09T23:26:40.832Z,8.17
2022-12-09T23:29:13.732Z,8.53
2022-12-09T23:31:41.545Z,7.53
2022-12-09T23:34:10.288Z,7.90
2022-12-09T23:36:39.830Z,8.33
2022-12-09T23:39:12.982Z,8.40
2022-12-09T23:41:41.786Z,7.47
2022-12-09T23:44:15.743Z,7.70
2022-12-09T23:46:43.024Z,7.80
2022-12-09T23:49:10.203Z,8.10
2022-12-09T23:51:40.523Z,7.30
2022-12-09T23:54:09.252Z,7.97
2022-12-09T23:56:39.844Z,8.77
2022-12-09T23:59:11.075Z,8.00
